Time;durP1;ratioP1;P1;durP2;ratioP2;P2;SDS_P1;SDS_P2;PMS_P1;PMS_P2;Temp;Humidity;BMP_temperature;BMP_pressure;BME280_temperature;BME280_humidity;BME280_pressure;Samples;Min_cycle;Max_cycle;Signal;HPM_P1;HPM_P2
2023/01/12 00:01:09;;;;;;;11.10;9.83;;;6.60;1.00;;;;;;6286333;28;20648;-55
2023/01/12 00:04:12;;;;;;;16.33;9.40;;;6.30;1.00;;;;;;6282828;28;20248;-54
2023/01/12 00:07:16;;;;;;;11.63;9.00;;;6.70;1.00;;;;;;6289149;28;20454;-54
2023/01/12 00:10:24;;;;;;;12.87;9.97;;;6.60;1.00;;;;;;6293494;28;20702;-55
2023/01/12 00:13:28;;;;;;;9.63;8.63;;;6.30;1.00;;;;;;6288734;28;20229;-55
2023/01/12 00:16:37;;;;;;;10.30;9.07;;;6.30;1.00;;;;;;6261454;28;20237;-56
2023/01/12 00:19:40;;;;;;;11.30;8.73;;;6.40;1.00;;;;;;6261240;28;20669;-56
2023/01/12 00:22:43;;;;;;;10.00;9.17;;;6.30;1.00;;;;;;6260925;28;20620;-56
2023/01/12 00:25:53;;;;;;;10.30;9.20;;;6.60;1.00;;;;;;6278189;28;20237;-55
2023/01/12 00:28:56;;;;;;;10.50;8.50;;;6.60;1.00;;;;;;6285556;28;20698;-55
2023/01/12 00:32:00;;;;;;;10.07;8.60;;;6.30;1.00;;;;;;6275809;28;20248;-56
2023/01/12 00:35:04;;;;;;;15.07;9.17;;;6.30;1.00;;;;;;6285878;28;20238;-58
2023/01/12 00:38:07;;;;;;;10.50;8.43;;;6.40;1.00;;;;;;6269353;28;20229;-55
2023/01/12 00:45:20;;;;;;;15.27;8.83;;;6.30;1.00;;;;;;6285916;28;20241;-57
2023/01/12 00:47:59;;;;;;;8.80;7.90;;;6.30;1.00;;;;;;6255524;28;20626;-56
2023/01/12 00:51:03;;;;;;;13.83;8.70;;;6.10;1.00;;;;;;6261034;28;20531;-55
2023/01/12 00:54:07;;;;;;;9.90;7.67;;;6.50;1.00;;;;;;6262883;28;20229;-57
2023/01/12 00:57:13;;;;;;;18.00;9.00;;;6.10;1.00;;;;;;6284705;28;20793;-56
2023/01/12 01:00:17;;;;;;;12.67;8.00;;;6.20;1.00;;;;;;6283872;28;20801;-56
2023/01/12 01:03:20;;;;;;;12.13;7.70;;;6.40;1.00;;;;;;6283449;28;20248;-54
2023/01/12 01:06:24;;;;;;;10.63;8.20;;;6.00;1.00;;;;;;6284667;28;20642;-57
2023/01/12 01:09:27;;;;;;;8.43;7.47;;;6.40;1.00;;;;;;6284247;28;20615;-55
2023/01/12 01:12:32;;;;;;;12.10;7.73;;;6.20;1.00;;;;;;6266211;28;20249;-56
2023/01/12 01:15:36;;;;;;;13.03;6.53;;;6.40;1.00;;;;;;6259420;28;20230;-56
2023/01/12 01:18:39;;;;;;;11.50;7.00;;;6.10;1.00;;;;;;6262464;28;20291;-55
2023/01/12 01:21:42;;;;;;;13.90;6.73;;;6.50;1.00;;;;;;6285124;28;20784;-56
2023/01/12 01:24:47;;;;;;;11.50;6.93;;;6.30;1.00;;;;;;6276965;28;20233;-55
2023/01/12 01:27:51;;;;;;;12.30;6.67;;;6.20;1.00;;;;;;6282627;28;20237;-55
2023/01/12 01:31:03;;;;;;;8.93;6.10;;;6.20;1.00;;;;;;6284239;28;20244;-54
2023/01/12 01:34:06;;;;;;;11.43;5.97;;;6.20;1.00;;;;;;6284294;28;20476;-56
2023/01/12 01:37:10;;;;;;;14.27;6.10;;;6.40;1.00;;;;;;6275383;28;20228;-56
2023/01/12 01:40:13;;;;;;;10.53;6.00;;;6.30;1.00;;;;;;6279768;28;20237;-56
2023/01/12 01:43:20;;;;;;;7.07;5.60;;;6.30;1.00;;;;;;6284866;28;20248;-56
2023/01/12 01:46:33;;;;;;;9.00;5.90;;;6.20;1.00;;;;;;6278528;28;20245;-56
2023/01/12 01:49:42;;;;;;;12.73;6.23;;;6.40;1.00;;;;;;6258947;28;20802;-56
2023/01/12 01:52:49;;;;;;;8.63;5.50;;;6.40;1.00;;;;;;6259610;28;20230;-56
2023/01/12 01:55:57;;;;;;;11.57;5.47;;;6.40;1.00;;;;;;6258998;28;20356;-54
2023/01/12 01:59:09;;;;;;;9.50;5.50;;;6.40;1.00;;;;;;6258167;28;20245;-56
2023/01/12 02:02:14;;;;;;;10.80;5.93;;;6.40;1.00;;;;;;6265946;28;20229;-56
2023/01/12 02:05:23;;;;;;;12.83;5.40;;;6.50;1.00;;;;;;6281387;28;20241;-56
2023/01/12 02:08:31;;;;;;;10.37;5.40;;;6.70;1.00;;;;;;6282500;28;20245;-56
2023/01/12 02:18:24;;;;;;;12.53;5.50;;;6.80;1.00;;;;;;6257481;28;20230;-56
2023/01/12 02:21:53;;;;;;;7.33;5.10;;;6.60;1.00;;;;;;6258218;28;20617;-56
2023/01/12 02:25:31;;;;;;;9.53;4.87;;;6.80;1.00;;;;;;6259237;28;20233;-56
2023/01/12 02:28:55;;;;;;;10.17;6.07;;;6.70;1.00;;;;;;6282280;28;20232;-56
2023/01/12 02:32:07;;;;;;;8.73;5.40;;;6.90;1.00;;;;;;6272663;28;20225;-56
2023/01/12 02:35:19;;;;;;;7.30;5.17;;;6.60;1.00;;;;;;6282988;28;20226;-56
2023/01/12 02:38:33;;;;;;;8.63;5.03;;;6.60;1.00;;;;;;6282690;28;20237;-56
2023/01/12 02:45:09;;;;;;;9.37;5.20;;;6.70;1.00;;;;;;6257418;28;20238;-55
2023/01/12 02:48:21;;;;;;;9.40;5.90;;;6.80;1.00;;;;;;6262017;28;20307;-56
2023/01/12 02:51:32;;;;;;;5.77;4.83;;;6.60;1.00;;;;;;6263060;28;20245;-56
2023/01/12 02:54:36;;;;;;;6.87;4.57;;;6.60;1.00;;;;;;6262738;28;20376;-56
2023/01/12 02:57:41;;;;;;;12.93;5.13;;;6.80;1.00;;;;;;6258156;28;20587;-54
2023/01/12 03:00:45;;;;;;;8.93;4.70;;;6.70;1.00;;;;;;6262937;28;20237;-56
2023/01/12 03:03:51;;;;;;;4.70;4.03;;;6.80;1.00;;;;;;6274645;28;20238;-56
2023/01/12 03:07:51;;;;;;;7.43;4.43;;;6.60;1.00;;;;;;6282163;28;20271;-56
2023/01/12 03:11:02;;;;;;;9.20;4.70;;;7.00;1.00;;;;;;6175595;28;20461;-56
2023/01/12 03:14:07;;;;;;;10.93;4.90;;;6.60;1.00;;;;;;6217963;28;20248;-56
2023/01/12 03:17:16;;;;;;;8.60;4.47;;;6.80;1.00;;;;;;6287344;28;20696;-55
2023/01/12 03:20:24;;;;;;;6.93;4.80;;;6.90;1.00;;;;;;6279866;28;20239;-56
2023/01/12 03:23:32;;;;;;;5.73;4.73;;;6.70;1.00;;;;;;6266617;28;20712;-56
2023/01/12 03:26:41;;;;;;;5.33;4.57;;;6.60;1.00;;;;;;6277001;28;20321;-55
2023/01/12 03:29:54;;;;;;;12.47;4.67;;;6.90;1.00;;;;;;6270191;28;20241;-55
2023/01/12 03:32:57;;;;;;;7.13;4.77;;;7.00;1.00;;;;;;6276540;28;20237;-56
2023/01/12 03:36:12;;;;;;;7.03;4.83;;;6.80;1.00;;;;;;6278352;28;20230;-55
2023/01/12 03:39:22;;;;;;;10.50;4.60;;;6.70;1.00;;;;;;6289834;28;20252;-56
2023/01/12 03:42:30;;;;;;;8.40;4.20;;;7.00;1.00;;;;;;6293345;28;20373;-56
2023/01/12 03:45:38;;;;;;;4.90;4.50;;;6.80;1.00;;;;;;6291110;28;20674;-55
2023/01/12 03:48:47;;;;;;;6.77;4.17;;;6.70;1.00;;;;;;6274082;28;20259;-54
2023/01/12 03:51:54;;;;;;;7.60;4.37;;;7.20;1.00;;;;;;6262235;28;20277;-56
2023/01/12 03:55:00;;;;;;;6.40;4.20;;;7.10;1.00;;;;;;6262825;28;20237;-56
2023/01/12 03:58:03;;;;;;;8.87;4.00;;;7.30;1.00;;;;;;6261332;28;20325;-57
2023/01/12 04:01:06;;;;;;;7.73;4.10;;;7.00;1.00;;;;;;6261921;28;20886;-56
2023/01/12 04:04:10;;;;;;;8.50;4.50;;;6.90;1.00;;;;;;6282351;28;20393;-56
2023/01/12 04:07:14;;;;;;;9.53;4.57;;;6.90;1.00;;;;;;6286345;28;20718;-56
2023/01/12 04:10:17;;;;;;;6.87;4.13;;;6.90;1.00;;;;;;6286270;28;20815;-56
2023/01/12 04:13:20;;;;;;;10.20;4.20;;;6.90;1.00;;;;;;6269104;28;20233;-55
2023/01/12 04:16:23;;;;;;;8.20;3.77;;;6.90;1.00;;;;;;6261329;28;20234;-56
2023/01/12 04:19:26;;;;;;;7.87;4.30;;;6.90;1.00;;;;;;6261046;28;20629;-56
2023/01/12 04:22:44;;;;;;;4.17;3.87;;;7.20;1.00;;;;;;6264295;28;20260;-56
2023/01/12 04:25:47;;;;;;;5.00;4.17;;;7.30;1.00;;;;;;6275232;28;20246;-56
2023/01/12 04:28:50;;;;;;;5.07;3.97;;;7.20;1.00;;;;;;6279554;28;20238;-56
2023/01/12 04:31:54;;;;;;;5.97;3.87;;;6.90;1.00;;;;;;6256120;28;20853;-56
2023/01/12 04:35:11;;;;;;;4.83;4.40;;;6.90;1.00;;;;;;6279210;28;20236;-54
2023/01/12 04:38:17;;;;;;;7.47;4.23;;;7.00;1.00;;;;;;6282112;28;20235;-55
2023/01/12 04:41:20;;;;;;;5.93;4.57;;;7.00;1.00;;;;;;6281306;28;20644;-55
2023/01/12 04:44:23;;;;;;;6.90;3.97;;;7.20;1.00;;;;;;6280338;28;20233;-56
2023/01/12 04:47:26;;;;;;;6.57;4.20;;;6.90;1.00;;;;;;6282216;28;20252;-56
2023/01/12 04:50:30;;;;;;;7.27;4.00;;;6.80;1.00;;;;;;6270596;28;20242;-55
2023/01/12 04:53:34;;;;;;;7.63;4.90;;;7.10;1.00;;;;;;6278711;28;20851;-56
2023/01/12 04:56:37;;;;;;;6.10;4.67;;;7.00;1.00;;;;;;6284117;28;20786;-56
2023/01/12 04:59:40;;;;;;;6.40;4.10;;;7.30;1.00;;;;;;6278139;28;20230;-56
2023/01/12 05:02:43;;;;;;;4.90;4.43;;;7.20;1.00;;;;;;6280803;28;20237;-55
2023/01/12 05:05:46;;;;;;;7.50;4.37;;;7.10;1.00;;;;;;6283119;28;20259;-55
2023/01/12 05:12:12;;;;;;;7.60;4.50;;;7.50;1.00;;;;;;6280941;28;20226;-56
2023/01/12 05:15:15;;;;;;;10.77;5.00;;;7.40;1.00;;;;;;6288015;28;21061;-56
2023/01/12 05:18:18;;;;;;;5.43;4.03;;;7.30;1.00;;;;;;6276076;28;20400;-56
2023/01/12 05:21:22;;;;;;;6.23;3.73;;;7.30;1.00;;;;;;6277300;28;20237;-57
2023/01/12 05:24:26;;;;;;;5.97;4.00;;;7.40;1.00;;;;;;6279471;28;20248;-55
2023/01/12 05:27:30;;;;;;;6.33;4.37;;;7.50;1.00;;;;;;6281924;28;20229;-56
2023/01/12 05:30:33;;;;;;;5.80;3.80;;;7.40;1.00;;;;;;6277305;28;20264;-56
2023/01/12 05:33:39;;;;;;;7.37;4.03;;;7.40;1.00;;;;;;6277181;28;20229;-56
2023/01/12 05:36:42;;;;;;;5.77;3.70;;;7.50;1.00;;;;;;6278602;28;20237;-56
2023/01/12 05:39:47;;;;;;;6.53;3.90;;;7.70;1.00;;;;;;6276365;28;20897;-56
2023/01/12 05:46:19;;;;;;;7.60;3.97;;;7.50;1.00;;;;;;6268100;28;20241;-56
2023/01/12 05:49:28;;;;;;;6.23;4.10;;;7.60;1.00;;;;;;6269308;28;20615;-57
2023/01/12 05:52:31;;;;;;;6.27;4.77;;;7.70;1.00;;;;;;6280359;28;20230;-54
2023/01/12 05:55:36;;;;;;;6.57;4.07;;;7.60;1.00;;;;;;6286360;28;20614;-54
2023/01/12 05:58:39;;;;;;;8.87;4.73;;;7.80;1.00;;;;;;6284791;28;20803;-55
2023/01/12 06:01:42;;;;;;;4.07;3.70;;;7.60;1.00;;;;;;6285246;28;20270;-56
2023/01/12 06:04:46;;;;;;;4.47;3.90;;;7.60;1.00;;;;;;6276353;28;20248;-56
2023/01/12 06:07:49;;;;;;;4.57;4.17;;;7.70;1.00;;;;;;6282423;28;20241;-57
2023/01/12 06:10:53;;;;;;;4.20;3.80;;;7.70;1.00;;;;;;6283672;28;20233;-56
2023/01/12 06:13:58;;;;;;;6.43;3.77;;;7.60;1.00;;;;;;6279619;28;20248;-56
2023/01/12 06:17:01;;;;;;;8.03;4.33;;;7.70;1.00;;;;;;6289492;28;20229;-57
2023/01/12 06:20:05;;;;;;;7.20;4.40;;;7.80;1.00;;;;;;6283079;28;20238;-56
2023/01/12 06:23:08;;;;;;;6.57;4.40;;;7.80;1.00;;;;;;6280559;28;20743;-56
2023/01/12 06:26:13;;;;;;;6.07;4.30;;;7.80;1.00;;;;;;6283798;28;20718;-57
2023/01/12 06:29:16;;;;;;;7.03;4.20;;;7.80;1.00;;;;;;6280111;28;20601;-55
2023/01/12 06:32:19;;;;;;;5.27;4.37;;;7.80;1.00;;;;;;6276353;28;20230;-55
2023/01/12 06:35:22;;;;;;;4.50;4.23;;;7.80;1.00;;;;;;6278369;28;20694;-56
2023/01/12 06:38:27;;;;;;;9.00;4.40;;;7.80;1.00;;;;;;6277025;28;20233;-56
2023/01/12 06:44:53;;;;;;;8.00;4.40;;;7.80;1.00;;;;;;6280355;28;20237;-56
2023/01/12 06:47:57;;;;;;;9.73;4.50;;;8.00;1.00;;;;;;6280364;28;20233;-55
2023/01/12 06:51:01;;;;;;;5.70;4.20;;;7.70;1.00;;;;;;6269747;28;20292;-55
2023/01/12 06:54:04;;;;;;;4.77;4.10;;;7.70;1.00;;;;;;6278605;28;20240;-55
2023/01/12 06:57:08;;;;;;;5.80;4.40;;;7.90;1.00;;;;;;6269229;28;20228;-56
2023/01/12 07:00:12;;;;;;;6.90;4.33;;;7.70;1.00;;;;;;6272685;28;20248;-56
2023/01/12 07:03:17;;;;;;;6.83;4.20;;;7.80;1.00;;;;;;6282744;28;20371;-56
2023/01/12 07:06:20;;;;;;;10.67;4.13;;;7.90;1.00;;;;;;6272513;28;20276;-56
2023/01/12 07:09:23;;;;;;;8.63;4.70;;;7.70;1.00;;;;;;6280411;28;20395;-56
2023/01/12 07:12:28;;;;;;;5.03;4.50;;;7.90;1.00;;;;;;6284807;28;20874;-55
2023/01/12 07:15:31;;;;;;;6.77;4.60;;;7.70;1.00;;;;;;6282997;28;20403;-56
2023/01/12 07:18:34;;;;;;;9.23;4.80;;;7.70;1.00;;;;;;6271001;28;20237;-60
2023/01/12 07:21:37;;;;;;;6.30;4.63;;;7.70;1.00;;;;;;6273210;28;20241;-55
2023/01/12 07:24:40;;;;;;;8.77;4.30;;;7.70;1.00;;;;;;6283544;28;20238;-56
2023/01/12 07:27:50;;;;;;;4.90;4.23;;;7.70;1.00;;;;;;6288267;28;20617;-55
2023/01/12 07:30:59;;;;;;;7.03;4.87;;;7.90;1.00;;;;;;6293646;28;20240;-55
2023/01/12 07:34:02;;;;;;;9.63;5.37;;;7.70;1.00;;;;;;6278781;28;20364;-54
2023/01/12 07:37:06;;;;;;;9.93;5.27;;;7.70;1.00;;;;;;6274862;28;20225;-57
2023/01/12 07:40:10;;;;;;;6.93;4.87;;;7.70;1.00;;;;;;6285423;28;20240;-55
2023/01/12 07:43:16;;;;;;;10.27;5.27;;;7.90;1.00;;;;;;6279025;28;20475;-54
2023/01/12 07:46:19;;;;;;;11.37;5.00;;;7.80;1.00;;;;;;6283022;28;20236;-56
2023/01/12 07:49:22;;;;;;;7.93;6.07;;;7.80;1.00;;;;;;6285102;28;20282;-54
2023/01/12 07:52:25;;;;;;;8.23;5.10;;;7.80;1.00;;;;;;6275209;28;20253;-55
2023/01/12 07:55:28;;;;;;;6.27;4.10;;;7.90;1.00;;;;;;6280739;28;20236;-55
2023/01/12 07:58:32;;;;;;;10.37;6.27;;;8.00;1.00;;;;;;6281928;28;20244;-55
2023/01/12 08:01:36;;;;;;;6.07;4.30;;;8.00;1.00;;;;;;6284929;28;20237;-54
2023/01/12 08:04:39;;;;;;;7.30;5.07;;;8.00;1.00;;;;;;6283318;28;20239;-55
2023/01/12 08:07:43;;;;;;;5.67;5.17;;;8.00;1.00;;;;;;6279274;28;20237;-55
2023/01/12 08:10:49;;;;;;;5.40;4.93;;;8.00;1.00;;;;;;6289040;28;20351;-55
2023/01/12 08:13:55;;;;;;;10.30;5.47;;;8.20;1.00;;;;;;6280336;28;20237;-55
2023/01/12 08:17:01;;;;;;;7.87;5.30;;;8.10;1.00;;;;;;6283291;28;20245;-56
2023/01/12 08:20:10;;;;;;;7.30;5.00;;;8.10;1.00;;;;;;6279262;28;20234;-55
2023/01/12 08:23:17;;;;;;;7.63;4.47;;;8.00;1.00;;;;;;6287521;28;20604;-55
2023/01/12 08:26:24;;;;;;;7.37;5.07;;;8.10;1.00;;;;;;6277578;28;20222;-55
2023/01/12 08:29:39;;;;;;;5.90;4.80;;;8.10;1.00;;;;;;6289934;28;20896;-56
2023/01/12 08:32:42;;;;;;;7.13;4.67;;;8.30;1.00;;;;;;6280060;28;20372;-55
2023/01/12 08:35:46;;;;;;;6.70;4.47;;;8.20;1.00;;;;;;6275581;28;20686;-55
2023/01/12 08:38:50;;;;;;;6.57;4.23;;;8.20;1.00;;;;;;6282798;28;20255;-55
2023/01/12 08:41:53;;;;;;;5.37;4.63;;;8.30;1.00;;;;;;6279033;28;20248;-54
2023/01/12 08:44:57;;;;;;;9.70;4.57;;;8.30;1.00;;;;;;6280268;28;20229;-54
2023/01/12 08:48:00;;;;;;;5.67;4.10;;;8.40;1.00;;;;;;6285422;28;20232;-57
2023/01/12 08:51:06;;;;;;;8.63;6.60;;;8.30;1.00;;;;;;6287308;28;20240;-55
2023/01/12 08:54:11;;;;;;;4.80;4.37;;;8.40;1.00;;;;;;6279401;28;20612;-56
2023/01/12 08:57:15;;;;;;;8.33;4.63;;;8.40;1.00;;;;;;6277746;28;20774;-56
2023/01/12 09:00:21;;;;;;;7.53;4.40;;;8.40;1.00;;;;;;6292262;28;20331;-57
2023/01/12 09:03:24;;;;;;;4.20;3.80;;;8.50;1.00;;;;;;6288642;28;20271;-56
2023/01/12 09:06:29;;;;;;;5.10;4.07;;;8.60;1.00;;;;;;6294917;28;20254;-54
2023/01/12 09:09:32;;;;;;;4.47;4.07;;;8.60;1.00;;;;;;6280312;28;20253;-56
2023/01/12 09:12:35;;;;;;;6.97;3.57;;;8.60;1.00;;;;;;6287486;28;20237;-55
2023/01/12 09:15:39;;;;;;;5.87;3.90;;;8.60;1.00;;;;;;6284353;28;20731;-56
2023/01/12 09:18:43;;;;;;;6.00;3.83;;;8.70;1.00;;;;;;6288290;28;20241;-56
2023/01/12 09:21:47;;;;;;;5.43;4.40;;;8.70;1.00;;;;;;6283383;28;20241;-55
2023/01/12 09:24:50;;;;;;;3.87;3.50;;;8.80;1.00;;;;;;6267826;28;20229;-55
2023/01/12 09:27:53;;;;;;;5.03;4.60;;;8.90;1.00;;;;;;6277373;28;20241;-55
2023/01/12 09:31:01;;;;;;;6.60;4.20;;;9.00;1.00;;;;;;6285365;28;20240;-55
2023/01/12 09:34:04;;;;;;;6.60;4.73;;;9.00;1.00;;;;;;6279218;28;20357;-55
2023/01/12 09:37:07;;;;;;;4.97;4.57;;;9.00;1.00;;;;;;6275622;28;20232;-55
2023/01/12 09:40:14;;;;;;;6.97;4.20;;;9.00;1.00;;;;;;6281479;28;20620;-54
2023/01/12 09:50:13;;;;;;;4.30;4.10;;;9.30;1.00;;;;;;6230914;28;20257;-55
2023/01/12 09:53:21;;;;;;;6.90;4.20;;;9.30;1.00;;;;;;6283900;28;20229;-55
2023/01/12 09:56:31;;;;;;;7.50;4.50;;;9.30;1.00;;;;;;6291268;28;20229;-56
2023/01/12 09:59:44;;;;;;;6.30;4.13;;;9.20;1.00;;;;;;6279021;28;20456;-56
2023/01/12 10:02:52;;;;;;;6.43;4.23;;;9.30;1.00;;;;;;6284653;28;20241;-56
2023/01/12 10:05:58;;;;;;;6.77;4.67;;;9.30;1.00;;;;;;6276418;28;20241;-56
2023/01/12 10:09:02;;;;;;;5.90;4.60;;;9.40;1.00;;;;;;6275735;28;20238;-55
2023/01/12 10:12:15;;;;;;;5.10;4.63;;;9.40;1.00;;;;;;6284570;28;20637;-55
2023/01/12 10:15:30;;;;;;;4.77;4.10;;;9.50;1.00;;;;;;6274566;28;20240;-56
2023/01/12 10:18:41;;;;;;;7.30;4.37;;;9.60;1.00;;;;;;6289700;28;20264;-56
2023/01/12 10:21:44;;;;;;;6.93;4.57;;;9.60;1.00;;;;;;6287426;28;20233;-57
2023/01/12 10:24:47;;;;;;;5.00;4.03;;;9.70;1.00;;;;;;6283421;28;20655;-56
2023/01/12 10:27:52;;;;;;;4.27;3.90;;;9.60;1.00;;;;;;6278203;28;20717;-56
2023/01/12 10:30:56;;;;;;;4.97;4.10;;;9.70;1.00;;;;;;6279113;28;20240;-56
2023/01/12 10:34:06;;;;;;;4.97;3.90;;;9.80;1.00;;;;;;6280741;28;20620;-59
2023/01/12 10:37:11;;;;;;;4.60;4.10;;;9.80;1.00;;;;;;6281510;28;20324;-56
2023/01/12 10:40:24;;;;;;;3.83;3.50;;;9.80;1.00;;;;;;6282166;28;20263;-56
2023/01/12 10:43:31;;;;;;;7.07;4.00;;;9.80;1.00;;;;;;6277947;28;20229;-56
2023/01/12 10:46:34;;;;;;;7.97;3.70;;;9.80;1.00;;;;;;6277553;28;20240;-56
2023/01/12 10:49:39;;;;;;;6.10;4.03;;;9.80;1.00;;;;;;6282482;28;20241;-55
2023/01/12 10:52:42;;;;;;;6.83;4.87;;;9.80;1.00;;;;;;6279341;28;20254;-59
2023/01/12 10:55:46;;;;;;;5.87;4.20;;;9.80;1.00;;;;;;6286448;28;20260;-56
2023/01/12 10:58:54;;;;;;;9.67;4.00;;;9.70;1.00;;;;;;6280490;28;20251;-56
2023/01/12 11:02:16;;;;;;;5.27;3.93;;;9.70;1.00;;;;;;6268723;28;20747;-55
2023/01/12 11:05:37;;;;;;;8.67;4.03;;;9.80;1.00;;;;;;6282966;28;20244;-55
2023/01/12 11:08:40;;;;;;;4.50;4.10;;;9.70;1.00;;;;;;6283272;28;20241;-56
2023/01/12 11:11:44;;;;;;;7.47;5.60;;;9.70;1.00;;;;;;6281685;28;20237;-56
2023/01/12 11:15:00;;;;;;;4.57;4.10;;;9.70;1.00;;;;;;6283982;28;20889;-56
2023/01/12 11:18:35;;;;;;;8.37;4.17;;;9.70;1.00;;;;;;6287467;28;20262;-56
2023/01/12 11:21:43;;;;;;;4.07;3.60;;;9.50;1.00;;;;;;6279205;28;20234;-54
2023/01/12 11:24:51;;;;;;;3.83;3.60;;;9.50;1.00;;;;;;6268781;28;20238;-56
2023/01/12 11:28:00;;;;;;;3.80;3.60;;;9.40;1.00;;;;;;6281404;28;20902;-56
2023/01/12 11:31:10;;;;;;;4.33;3.57;;;9.40;1.00;;;;;;6278974;28;20256;-55
2023/01/12 11:34:17;;;;;;;5.00;4.50;;;9.40;1.00;;;;;;6267304;28;20752;-59
2023/01/12 11:37:22;;;;;;;10.77;4.63;;;9.40;1.00;;;;;;6281835;28;20228;-55
2023/01/12 11:40:30;;;;;;;4.93;4.07;;;9.30;1.00;;;;;;6277462;28;20278;-55
2023/01/12 11:43:49;;;;;;;4.17;3.47;;;9.30;1.00;;;;;;6287736;28;20229;-55
2023/01/12 11:46:59;;;;;;;4.63;4.17;;;9.30;1.00;;;;;;6287169;28;20237;-56
2023/01/12 11:50:07;;;;;;;4.97;4.50;;;9.30;1.00;;;;;;6283421;28;20237;-56
2023/01/12 11:53:16;;;;;;;6.63;4.00;;;9.30;1.00;;;;;;6284379;28;20231;-53
2023/01/12 11:56:37;;;;;;;6.03;3.93;;;9.30;1.00;;;;;;6285105;28;20229;-56
2023/01/12 11:59:50;;;;;;;5.87;3.80;;;9.30;1.00;;;;;;6284705;28;20248;-56
2023/01/12 12:03:06;;;;;;;8.03;3.70;;;9.40;1.00;;;;;;6285972;28;20253;-55
2023/01/12 12:06:34;;;;;;;4.10;3.50;;;9.40;1.00;;;;;;6277378;28;20241;-56
2023/01/12 12:09:53;;;;;;;3.83;3.53;;;9.40;1.00;;;;;;6283666;28;20729;-55
2023/01/12 12:13:25;;;;;;;3.50;3.30;;;9.40;1.00;;;;;;6289826;28;20229;-55
2023/01/12 12:16:37;;;;;;;4.03;3.67;;;9.50;1.00;;;;;;6273205;28;20232;-54
2023/01/12 12:19:49;;;;;;;3.67;3.37;;;9.50;1.00;;;;;;6278672;28;20311;-55
2023/01/12 12:23:05;;;;;;;4.13;3.83;;;9.50;1.00;;;;;;6284729;28;20242;-55
2023/01/12 12:26:16;;;;;;;3.90;3.60;;;9.60;1.00;;;;;;6283131;28;20230;-54
2023/01/12 12:29:33;;;;;;;5.47;3.43;;;9.60;1.00;;;;;;6280761;28;20245;-56
2023/01/12 12:32:44;;;;;;;5.77;3.30;;;9.60;1.00;;;;;;6287287;28;20233;-55
2023/01/12 12:36:01;;;;;;;3.20;3.10;;;9.80;1.00;;;;;;6277267;28;20259;-56
2023/01/12 12:39:34;;;;;;;3.27;2.97;;;9.70;1.00;;;;;;6271086;28;20238;-56
2023/01/12 12:46:20;;;;;;;3.40;3.17;;;9.80;1.00;;;;;;6284054;28;20232;-56
2023/01/12 12:49:31;;;;;;;3.60;3.33;;;9.80;1.00;;;;;;6285510;28;20764;-55
2023/01/12 12:52:34;;;;;;;3.83;2.80;;;9.90;1.00;;;;;;6282605;28;20229;-55
2023/01/12 12:55:37;;;;;;;4.20;3.90;;;9.90;1.00;;;;;;6277531;28;20336;-55
2023/01/12 12:58:45;;;;;;;3.40;3.10;;;9.90;1.00;;;;;;6278257;28;20288;-55
2023/01/12 13:01:59;;;;;;;3.00;2.80;;;10.00;1.00;;;;;;6286721;28;20601;-56
2023/01/12 13:05:05;;;;;;;2.80;2.70;;;10.00;1.00;;;;;;6277267;28;20261;-55
2023/01/12 13:08:24;;;;;;;2.80;2.60;;;9.90;1.00;;;;;;6284628;28;20625;-55
2023/01/12 13:11:52;;;;;;;2.80;2.70;;;10.00;1.00;;;;;;6285758;28;20316;-55
2023/01/12 13:15:21;;;;;;;2.80;2.60;;;10.00;1.00;;;;;;6269555;28;20237;-55
2023/01/12 13:19:02;;;;;;;3.07;2.97;;;10.00;1.00;;;;;;6285299;28;20712;-56
2023/01/12 13:22:27;;;;;;;2.80;2.70;;;10.00;1.00;;;;;;6282715;28;20229;-56
2023/01/12 13:25:52;;;;;;;3.20;2.83;;;10.00;1.00;;;;;;6276830;28;20241;-56
2023/01/12 13:29:28;;;;;;;2.70;2.70;;;10.00;1.00;;;;;;6284407;28;20240;-56
2023/01/12 13:32:49;;;;;;;2.63;2.60;;;9.90;1.00;;;;;;6284062;28;20225;-55
2023/01/12 13:36:08;;;;;;;3.00;3.00;;;10.00;1.00;;;;;;6279571;28;20241;-55
2023/01/12 13:39:15;;;;;;;3.07;2.80;;;9.90;1.00;;;;;;6275543;28;20320;-54
2023/01/12 13:45:49;;;;;;;2.40;2.40;;;10.00;1.00;;;;;;6281635;28;20256;-55
2023/01/12 13:48:55;;;;;;;2.73;2.63;;;10.00;1.00;;;;;;6275570;28;20718;-54
2023/01/12 13:52:01;;;;;;;3.17;3.00;;;10.00;1.00;;;;;;6283207;28;20301;-55
2023/01/12 13:55:17;;;;;;;2.47;2.47;;;10.00;1.00;;;;;;6281101;28;20248;-55
2023/01/12 13:58:20;;;;;;;2.80;2.70;;;10.00;1.00;;;;;;6279068;28;20249;-56
2023/01/12 14:01:26;;;;;;;2.80;2.70;;;10.00;1.00;;;;;;6282957;28;20268;-56
2023/01/12 14:04:54;;;;;;;2.70;2.60;;;10.00;1.00;;;;;;6278321;28;20259;-55
2023/01/12 14:08:08;;;;;;;2.67;2.67;;;10.00;1.00;;;;;;6275906;28;20245;-55
2023/01/12 14:11:26;;;;;;;2.70;2.70;;;10.00;1.00;;;;;;6282041;28;20768;-56
2023/01/12 14:18:11;;;;;;;2.97;2.87;;;10.00;1.00;;;;;;6275888;28;20321;-57
2023/01/12 14:21:25;;;;;;;2.80;2.70;;;10.10;1.00;;;;;;6285926;28;20478;-55
2023/01/12 14:24:28;;;;;;;2.73;2.70;;;10.10;1.00;;;;;;6282446;28;20221;-55
2023/01/12 14:27:31;;;;;;;2.43;2.43;;;10.10;1.00;;;;;;6272843;28;20230;-56
2023/01/12 14:30:35;;;;;;;2.60;2.60;;;10.10;1.00;;;;;;6287791;28;20470;-55
2023/01/12 14:33:39;;;;;;;2.90;2.90;;;10.10;1.00;;;;;;6277874;28;20238;-56
2023/01/12 14:36:46;;;;;;;2.43;2.33;;;10.10;1.00;;;;;;6281401;28;20618;-55
2023/01/12 14:39:49;;;;;;;2.60;2.50;;;10.10;1.00;;;;;;6275501;28;20252;-55
2023/01/12 14:46:26;;;;;;;3.07;2.87;;;10.10;1.00;;;;;;6284157;28;20221;-55
2023/01/12 14:49:32;;;;;;;2.70;2.70;;;10.10;1.00;;;;;;6290538;28;20292;-55
2023/01/12 14:52:36;;;;;;;2.80;2.70;;;10.20;1.00;;;;;;6289639;28;20237;-56
2023/01/12 14:55:40;;;;;;;2.47;2.47;;;10.20;1.00;;;;;;6285730;28;20278;-55
2023/01/12 14:58:45;;;;;;;2.73;2.73;;;10.20;1.00;;;;;;6278082;28;20247;-57
2023/01/12 15:01:49;;;;;;;2.70;2.50;;;10.20;1.00;;;;;;6285804;28;20243;-56
2023/01/12 15:04:56;;;;;;;2.70;2.50;;;10.20;1.00;;;;;;6295463;28;20255;-56
2023/01/12 15:08:02;;;;;;;2.70;2.50;;;10.30;1.00;;;;;;6286468;28;20249;-55
2023/01/12 15:11:08;;;;;;;2.53;2.43;;;10.30;1.00;;;;;;6283639;28;20240;-56
2023/01/12 15:14:23;;;;;;;2.77;2.50;;;10.20;1.00;;;;;;6281132;28;20225;-57
2023/01/12 15:27:48;;;;;;;2.50;2.50;;;10.30;1.00;;;;;;6233339;28;20309;-55
2023/01/12 15:30:52;;;;;;;2.80;2.80;;;10.40;1.00;;;;;;6275628;28;20236;-56
2023/01/12 15:33:56;;;;;;;2.80;2.80;;;10.40;1.00;;;;;;6288038;28;20272;-57
2023/01/12 15:37:00;;;;;;;2.70;2.60;;;10.30;1.00;;;;;;6271129;28;20285;-55
2023/01/12 15:40:05;;;;;;;2.73;2.63;;;10.30;1.00;;;;;;6280583;28;20238;-57
2023/01/12 15:43:12;;;;;;;2.60;2.60;;;10.30;1.00;;;;;;6275988;28;20233;-55
2023/01/12 15:46:19;;;;;;;2.80;2.80;;;10.30;1.00;;;;;;6282564;28;20592;-55
2023/01/12 15:49:22;;;;;;;3.00;2.90;;;10.30;1.00;;;;;;6285473;28;20237;-55
2023/01/12 15:52:26;;;;;;;2.70;2.60;;;10.20;1.00;;;;;;6277845;28;20249;-55
2023/01/12 15:55:34;;;;;;;2.67;2.50;;;10.20;1.00;;;;;;6290515;28;20230;-55
2023/01/12 15:58:37;;;;;;;2.70;2.70;;;10.30;1.00;;;;;;6279681;28;20604;-55
2023/01/12 16:01:43;;;;;;;2.47;2.47;;;10.30;1.00;;;;;;6274994;28;20743;-56
2023/01/12 16:04:46;;;;;;;2.93;2.70;;;10.30;1.00;;;;;;6285109;28;20241;-56
2023/01/12 16:07:50;;;;;;;3.23;3.13;;;10.30;1.00;;;;;;6286910;28;20314;-57
2023/01/12 16:11:11;;;;;;;2.67;2.67;;;10.40;1.00;;;;;;6281295;28;20620;-55
2023/01/12 16:14:14;;;;;;;2.27;2.27;;;10.30;1.00;;;;;;6284548;28;20491;-57
2023/01/12 16:17:18;;;;;;;2.30;2.30;;;10.40;1.00;;;;;;6281739;28;20230;-56
2023/01/12 16:20:21;;;;;;;2.67;2.57;;;10.40;1.00;;;;;;6289193;28;20228;-56
2023/01/12 16:23:24;;;;;;;2.60;2.40;;;10.40;1.00;;;;;;6287814;28;20225;-56
2023/01/12 16:26:29;;;;;;;2.80;2.80;;;10.50;1.00;;;;;;6288555;28;20233;-56
2023/01/12 16:29:32;;;;;;;3.73;3.63;;;10.50;1.00;;;;;;6285473;28;20637;-55
2023/01/12 16:32:36;;;;;;;4.70;4.47;;;10.50;1.00;;;;;;6288440;28;20276;-55
2023/01/12 16:35:39;;;;;;;3.20;3.20;;;10.50;1.00;;;;;;6271224;28;20403;-55
2023/01/12 16:38:42;;;;;;;3.73;3.50;;;10.50;1.00;;;;;;6284210;28;20702;-55
2023/01/12 16:41:47;;;;;;;3.00;3.00;;;10.50;1.00;;;;;;6280114;28;20373;-55
2023/01/12 16:44:50;;;;;;;3.23;3.00;;;10.50;1.00;;;;;;6286980;28;20241;-56
2023/01/12 16:47:56;;;;;;;2.40;2.40;;;10.50;1.00;;;;;;6279211;28;20619;-56
2023/01/12 16:50:59;;;;;;;2.33;2.33;;;10.50;1.00;;;;;;6279115;28;20240;-57
2023/01/12 16:54:03;;;;;;;2.60;2.60;;;10.60;1.00;;;;;;6272474;28;20666;-56
2023/01/12 16:57:08;;;;;;;3.07;2.87;;;10.60;1.00;;;;;;6283846;28;20278;-55
2023/01/12 17:00:12;;;;;;;3.10;2.90;;;10.50;1.00;;;;;;6286687;28;20233;-55
2023/01/12 17:03:15;;;;;;;2.80;2.80;;;10.50;1.00;;;;;;6290252;28;20378;-56
2023/01/12 17:06:20;;;;;;;2.90;2.80;;;10.60;1.00;;;;;;6290769;28;20727;-56
2023/01/12 17:09:23;;;;;;;2.80;2.80;;;10.60;1.00;;;;;;6284491;28;20242;-55
2023/01/12 17:12:28;;;;;;;2.60;2.60;;;10.60;1.00;;;;;;6280471;28;20302;-61
2023/01/12 17:15:33;;;;;;;2.30;2.30;;;10.60;1.00;;;;;;6284443;28;20226;-55
2023/01/12 17:18:36;;;;;;;2.73;2.63;;;10.70;1.00;;;;;;6287010;28;20233;-55
2023/01/12 17:21:40;;;;;;;2.70;2.70;;;10.70;1.00;;;;;;6287657;28;20222;-55
2023/01/12 17:24:43;;;;;;;2.77;2.77;;;10.70;1.00;;;;;;6291520;28;20295;-55
2023/01/12 17:27:48;;;;;;;2.50;2.40;;;10.60;1.00;;;;;;6280729;28;20260;-56
2023/01/12 17:30:51;;;;;;;2.80;2.60;;;10.60;1.00;;;;;;6279897;28;20233;-55